createdAt,value
2023-04-21T00:01:32.110Z,25.25
2023-04-21T00:04:13.854Z,25.98
2023-04-21T00:06:47.153Z,33.25
2023-04-21T00:09:30.509Z,33.00
2023-04-21T00:12:10.769Z,31.95
2023-04-21T00:14:50.828Z,30.67
2023-04-21T00:17:26.491Z,31.70
2023-04-21T00:20:05.112Z,33.38
2023-04-21T00:22:42.772Z,36.22
2023-04-21T00:25:15.024Z,34.35
2023-04-21T00:27:52.110Z,37.05
2023-04-21T00:30:29.732Z,36.20
2023-04-21T00:33:06.599Z,36.22
2023-04-21T00:35:47.776Z,37.28
2023-04-21T00:38:28.026Z,35.58
2023-04-21T00:41:11.955Z,33.85
2023-04-21T00:44:08.210Z,33.20
2023-04-21T00:46:49.068Z,33.00
2023-04-21T00:49:21.078Z,36.60
2023-04-21T00:52:03.703Z,39.20
2023-04-21T00:54:42.550Z,37.78
2023-04-21T00:57:20.642Z,35.47
2023-04-21T00:59:55.950Z,29.80
2023-04-21T01:02:33.659Z,31.65
2023-04-21T01:05:12.558Z,31.45
2023-04-21T01:07:42.910Z,31.20
2023-04-21T01:10:17.018Z,28.90
2023-04-21T01:12:58.592Z,30.92
2023-04-21T01:15:31.484Z,29.15
2023-04-21T01:18:11.939Z,31.02
2023-04-21T01:20:50.082Z,31.20
2023-04-21T01:23:31.145Z,26.98
2023-04-21T01:26:08.875Z,30.38
2023-04-21T01:28:54.645Z,27.73
2023-04-21T01:31:30.821Z,32.45
2023-04-21T01:34:06.160Z,30.75
2023-04-21T01:36:46.586Z,30.98
2023-04-21T01:39:21.690Z,34.10
2023-04-21T01:41:59.858Z,32.03
2023-04-21T01:44:35.824Z,28.88
2023-04-21T01:47:11.703Z,32.00
2023-04-21T01:49:47.996Z,28.95
2023-04-21T01:52:21.148Z,28.15
2023-04-21T01:54:51.156Z,30.02
2023-04-21T01:57:23.522Z,27.65
2023-04-21T02:00:02.965Z,30.10
2023-04-21T02:02:38.826Z,28.67
2023-04-21T02:05:19.796Z,28.70
2023-04-21T02:07:58.046Z,32.05
2023-04-21T02:10:38.968Z,30.92
2023-04-21T02:13:13.952Z,32.10
2023-04-21T02:15:53.014Z,29.00
2023-04-21T02:18:35.289Z,29.90
2023-04-21T02:21:19.837Z,30.10
2023-04-21T02:23:54.729Z,28.23
2023-04-21T02:26:24.901Z,29.77
2023-04-21T02:28:59.473Z,30.75
2023-04-21T02:31:57.375Z,25.33
2023-04-21T02:34:44.428Z,28.00
2023-04-21T02:37:19.742Z,29.63
2023-04-21T02:40:00.808Z,28.20
2023-04-21T02:42:41.326Z,29.20
2023-04-21T02:45:21.129Z,30.35
2023-04-21T02:48:01.720Z,27.88
2023-04-21T02:50:40.144Z,26.17
2023-04-21T02:53:26.943Z,25.98
2023-04-21T02:56:04.735Z,25.65
2023-04-21T02:58:52.045Z,26.45
2023-04-21T03:01:30.298Z,27.40
2023-04-21T03:04:13.054Z,28.38
2023-04-21T03:06:56.685Z,30.58
2023-04-21T03:09:29.286Z,34.67
2023-04-21T03:12:05.513Z,34.03
2023-04-21T03:14:42.304Z,34.50
2023-04-21T03:17:19.558Z,34.38
2023-04-21T03:20:04.608Z,34.97
2023-04-21T03:22:39.211Z,37.72
2023-04-21T03:25:21.954Z,41.58
2023-04-21T03:28:02.543Z,38.50
2023-04-21T03:30:46.628Z,44.22
2023-04-21T03:33:27.864Z,33.88
2023-04-21T03:36:08.379Z,40.50
2023-04-21T03:38:54.016Z,34.08
2023-04-21T03:41:33.684Z,49.47
2023-04-21T03:44:12.958Z,50.28
2023-04-21T03:46:57.968Z,51.28
2023-04-21T03:49:36.742Z,51.45
2023-04-21T03:52:18.177Z,44.40
2023-04-21T03:55:03.156Z,37.95
2023-04-21T03:57:38.471Z,38.80
2023-04-21T04:00:23.300Z,37.63
2023-04-21T04:03:10.696Z,34.97
2023-04-21T04:05:48.784Z,35.50
2023-04-21T04:08:35.962Z,34.63
2023-04-21T04:11:08.419Z,37.55
2023-04-21T04:13:48.331Z,40.92
2023-04-21T04:16:29.248Z,51.92
2023-04-21T04:19:12.827Z,52.08
2023-04-21T04:21:55.127Z,53.03
2023-04-21T04:24:38.450Z,51.92
2023-04-21T04:27:20.568Z,51.28
2023-04-21T04:30:01.753Z,55.55
2023-04-21T04:32:47.417Z,54.90
2023-04-21T04:35:29.523Z,55.75
2023-04-21T04:38:14.919Z,58.20
2023-04-21T04:41:04.176Z,59.53
2023-04-21T04:43:44.982Z,65.05
2023-04-21T04:46:25.805Z,75.65
2023-04-21T04:49:04.001Z,74.25
2023-04-21T04:51:44.640Z,82.18
2023-04-21T04:54:24.823Z,86.82
2023-04-21T04:57:11.138Z,104.57
2023-04-21T04:59:48.869Z,111.63
2023-04-21T05:02:27.414Z,108.45
2023-04-21T05:05:05.087Z,103.03
2023-04-21T05:07:45.951Z,102.63
2023-04-21T05:10:32.830Z,96.63
2023-04-21T05:13:10.981Z,64.65
2023-04-21T05:15:46.836Z,51.88
2023-04-21T05:18:26.539Z,44.33
2023-04-21T05:21:07.562Z,39.75
2023-04-21T05:23:45.397Z,27.20
2023-04-21T05:26:21.492Z,33.10
2023-04-21T05:29:00.512Z,30.77
2023-04-21T05:31:35.011Z,18.48
2023-04-21T05:34:10.509Z,20.63
2023-04-21T05:36:49.107Z,22.23
2023-04-21T05:39:30.001Z,16.63
2023-04-21T05:42:08.004Z,22.63
2023-04-21T05:44:46.527Z,20.08
2023-04-21T05:47:27.339Z,25.45
2023-04-21T05:50:05.836Z,31.83
2023-04-21T05:52:44.170Z,21.27
2023-04-21T05:55:17.747Z,19.08
2023-04-21T05:57:56.075Z,20.38
2023-04-21T06:00:42.472Z,16.20
2023-04-21T06:03:20.359Z,20.00
2023-04-21T06:05:57.557Z,21.48
2023-04-21T06:08:36.283Z,20.75
2023-04-21T06:11:16.892Z,14.02
2023-04-21T06:13:56.588Z,17.27
2023-04-21T06:16:34.871Z,16.20
2023-04-21T06:19:18.082Z,11.82
2023-04-21T06:22:01.949Z,19.10
2023-04-21T06:24:40.866Z,19.05
2023-04-21T06:27:25.230Z,20.70
2023-04-21T06:30:00.618Z,14.38
2023-04-21T06:32:36.266Z,10.02
2023-04-21T06:35:19.009Z,23.65
2023-04-21T06:37:51.666Z,22.40
2023-04-21T06:40:29.643Z,16.20
2023-04-21T06:43:08.238Z,10.65
2023-04-21T06:45:41.393Z,14.05
2023-04-21T06:48:24.574Z,9.70
2023-04-21T06:51:02.720Z,14.13
2023-04-21T06:53:39.626Z,17.77
2023-04-21T06:56:19.827Z,15.15
2023-04-21T06:59:03.850Z,18.25
2023-04-21T07:04:24.212Z,12.98
2023-04-21T07:07:03.289Z,11.68
2023-04-21T07:09:38.729Z,12.57
2023-04-21T07:12:19.353Z,12.60
2023-04-21T07:14:55.060Z,12.27
2023-04-21T07:17:33.984Z,18.58
2023-04-21T07:20:09.936Z,20.55
2023-04-21T07:22:43.619Z,14.88
2023-04-21T07:25:19.518Z,12.93
2023-04-21T07:27:58.150Z,14.50
2023-04-21T07:30:34.061Z,9.55
2023-04-21T07:33:14.809Z,18.73
2023-04-21T07:35:53.036Z,16.05
2023-04-21T07:38:34.868Z,19.80
2023-04-21T07:41:12.851Z,24.75
2023-04-21T07:43:44.576Z,20.98
2023-04-21T07:46:26.018Z,11.90
2023-04-21T07:49:04.465Z,21.88
2023-04-21T07:51:42.704Z,15.90
2023-04-21T07:54:23.501Z,14.15
2023-04-21T07:57:02.173Z,7.88
2023-04-21T07:59:39.971Z,11.63
2023-04-21T08:02:15.606Z,12.85
2023-04-21T08:04:48.605Z,20.23
2023-04-21T08:07:30.186Z,14.98
2023-04-21T08:10:07.482Z,12.40
2023-04-21T08:12:48.050Z,11.55
2023-04-21T08:15:31.776Z,16.33
2023-04-21T08:18:12.517Z,12.60
2023-04-21T08:20:54.806Z,9.50
2023-04-21T08:23:35.497Z,15.68
2023-04-21T08:26:13.789Z,14.00
2023-04-21T08:28:48.822Z,9.52
2023-04-21T08:31:32.169Z,11.20
2023-04-21T08:34:10.223Z,14.20
2023-04-21T08:36:52.758Z,12.18
2023-04-21T08:39:41.489Z,12.60
2023-04-21T08:42:13.148Z,17.83
2023-04-21T08:44:51.497Z,17.20
2023-04-21T08:47:27.377Z,12.88
2023-04-21T08:50:00.234Z,12.18
2023-04-21T08:52:41.679Z,9.20
2023-04-21T08:55:15.709Z,10.05
2023-04-21T08:57:48.723Z,9.90
2023-04-21T09:00:26.890Z,8.00
2023-04-21T09:03:10.746Z,12.13
2023-04-21T09:06:07.973Z,11.32
2023-04-21T09:08:45.299Z,14.88
2023-04-21T09:11:32.915Z,12.65
2023-04-21T09:14:06.561Z,12.88
2023-04-21T09:17:02.881Z,8.68
2023-04-21T09:19:42.502Z,8.10
2023-04-21T09:22:20.734Z,9.93
2023-04-21T09:25:03.681Z,12.15
2023-04-21T09:27:47.866Z,19.20
2023-04-21T09:30:29.188Z,14.90
2023-04-21T09:33:20.255Z,10.60
2023-04-21T09:36:21.558Z,12.50
2023-04-21T09:39:38.218Z,12.95
2023-04-21T09:42:15.775Z,14.60
2023-04-21T09:44:58.147Z,19.45
2023-04-21T09:47:52.365Z,13.77
2023-04-21T09:50:54.228Z,11.75
2023-04-21T09:53:22.508Z,14.73
2023-04-21T09:56:02.692Z,15.93
2023-04-21T09:59:04.684Z,15.35
2023-04-21T10:01:39.268Z,13.00
2023-04-21T10:04:15.752Z,10.07
2023-04-21T10:06:49.878Z,8.85
2023-04-21T10:09:35.239Z,16.50
2023-04-21T10:12:14.507Z,9.02
2023-04-21T10:14:52.499Z,10.52
2023-04-21T10:17:32.239Z,8.55
2023-04-21T10:20:13.437Z,10.48
2023-04-21T10:22:46.445Z,8.73
2023-04-21T10:25:24.862Z,13.60
2023-04-21T10:28:05.667Z,9.75
2023-04-21T10:30:46.645Z,11.73
2023-04-21T10:33:23.877Z,11.38
2023-04-21T10:36:14.245Z,19.73
2023-04-21T10:38:50.388Z,11.57
2023-04-21T10:41:38.361Z,16.70
2023-04-21T10:44:19.897Z,9.98
2023-04-21T10:47:01.510Z,8.38
2023-04-21T10:49:42.427Z,10.38
2023-04-21T10:52:25.201Z,10.40
2023-04-21T10:55:13.493Z,10.80
2023-04-21T10:57:53.271Z,9.98
2023-04-21T11:00:34.427Z,10.15
2023-04-21T11:03:04.855Z,16.85
2023-04-21T11:05:40.719Z,10.15
2023-04-21T11:08:23.748Z,12.80
2023-04-21T11:11:07.916Z,15.20
2023-04-21T11:13:43.905Z,15.82
2023-04-21T11:16:22.806Z,22.17
2023-04-21T11:18:58.973Z,15.95
2023-04-21T11:21:33.252Z,8.18
2023-04-21T11:24:14.985Z,20.10
2023-04-21T11:26:51.216Z,13.82
2023-04-21T11:29:29.722Z,9.70
2023-04-21T11:32:06.549Z,12.32
2023-04-21T11:34:46.612Z,14.93
2023-04-21T11:37:38.424Z,14.35
2023-04-21T11:40:13.986Z,8.52
2023-04-21T11:42:49.646Z,15.73
2023-04-21T11:45:27.876Z,12.50
2023-04-21T11:48:23.734Z,12.30
2023-04-21T11:50:58.990Z,13.90
2023-04-21T11:53:36.986Z,12.57
2023-04-21T11:56:18.126Z,10.60
2023-04-21T11:59:00.362Z,9.93
2023-04-21T12:01:30.734Z,13.52
2023-04-21T12:04:09.032Z,7.95
2023-04-21T12:06:56.479Z,8.07
2023-04-21T12:09:30.917Z,20.95
2023-04-21T12:12:06.355Z,12.45
2023-04-21T12:14:43.578Z,13.80
2023-04-21T12:17:22.012Z,11.52
2023-04-21T12:20:06.788Z,12.05
2023-04-21T12:22:44.987Z,10.70
2023-04-21T12:25:18.996Z,16.45
2023-04-21T12:28:01.975Z,20.52
2023-04-21T12:30:41.738Z,12.03
2023-04-21T12:33:23.101Z,9.15
2023-04-21T12:36:11.742Z,14.57
2023-04-21T12:38:56.756Z,13.52
2023-04-21T12:41:31.640Z,10.80
2023-04-21T12:44:09.473Z,15.55
2023-04-21T12:46:51.351Z,9.95
2023-04-21T12:49:24.209Z,10.48
2023-04-21T12:52:05.533Z,14.47
2023-04-21T12:54:44.802Z,12.07
2023-04-21T12:57:15.751Z,15.20
2023-04-21T12:59:51.520Z,11.02
2023-04-21T13:02:27.257Z,9.48
2023-04-21T13:05:06.273Z,7.65
2023-04-21T13:07:54.099Z,7.53
2023-04-21T13:10:25.506Z,15.80
2023-04-21T13:13:02.366Z,7.85
2023-04-21T13:15:38.216Z,13.98
2023-04-21T13:18:10.799Z,17.42
2023-04-21T13:20:45.256Z,7.75
2023-04-21T13:23:19.723Z,6.07
2023-04-21T13:25:57.453Z,9.70
2023-04-21T13:28:41.497Z,12.25
2023-04-21T13:31:21.835Z,13.20
2023-04-21T13:33:56.597Z,13.35
2023-04-21T13:36:34.745Z,15.65
2023-04-21T13:39:16.853Z,7.28
2023-04-21T13:41:52.229Z,10.35
2023-04-21T13:44:26.607Z,7.85
2023-04-21T13:47:08.939Z,9.90
2023-04-21T13:49:52.158Z,8.30
2023-04-21T13:52:24.375Z,11.20
2023-04-21T13:54:57.514Z,7.38
2023-04-21T13:57:48.607Z,13.68
2023-04-21T14:00:24.499Z,10.32
2023-04-21T14:03:04.916Z,10.70
2023-04-21T14:05:45.509Z,9.00
2023-04-21T14:08:29.964Z,9.00
2023-04-21T14:10:59.582Z,8.18
2023-04-21T14:13:47.787Z,11.75
2023-04-21T14:16:29.409Z,14.13
2023-04-21T14:19:05.361Z,13.98
2023-04-21T14:21:41.536Z,10.48
2023-04-21T14:24:16.831Z,8.93
2023-04-21T14:26:58.859Z,12.82
2023-04-21T14:29:40.497Z,9.55
2023-04-21T14:32:23.612Z,9.55
2023-04-21T14:35:00.196Z,9.98
2023-04-21T14:37:33.322Z,7.90
2023-04-21T14:40:14.643Z,11.13
2023-04-21T14:42:49.534Z,11.43
2023-04-21T14:45:29.514Z,7.10
2023-04-21T14:48:14.228Z,9.93
2023-04-21T14:50:49.447Z,7.53
2023-04-21T14:53:30.376Z,6.93
2023-04-21T14:56:17.158Z,14.85
2023-04-21T14:58:51.705Z,10.18
2023-04-21T15:01:26.727Z,12.30
2023-04-21T15:04:05.158Z,8.52
2023-04-21T15:06:34.958Z,7.20
2023-04-21T15:09:16.009Z,7.38
2023-04-21T15:11:50.791Z,7.60
2023-04-21T15:14:34.793Z,7.22
2023-04-21T15:19:52.396Z,10.77
2023-04-21T15:22:34.410Z,11.13
2023-04-21T15:25:07.885Z,10.57
2023-04-21T15:27:43.075Z,8.07
2023-04-21T15:30:18.445Z,12.32
2023-04-21T15:32:53.935Z,8.60
2023-04-21T15:35:30.552Z,9.73
2023-04-21T15:38:06.621Z,13.73
2023-04-21T15:40:59.668Z,18.85
2023-04-21T15:43:38.788Z,11.65
2023-04-21T15:46:13.488Z,8.30
2023-04-21T15:48:46.648Z,10.93
2023-04-21T15:51:28.250Z,8.82
2023-04-21T15:54:04.614Z,8.05
2023-04-21T15:56:46.250Z,9.10
2023-04-21T15:59:19.499Z,16.50
2023-04-21T16:01:57.869Z,12.77
2023-04-21T16:04:36.035Z,7.80
2023-04-21T16:07:14.057Z,11.38
2023-04-21T16:09:48.647Z,7.97
2023-04-21T16:12:26.435Z,10.20
2023-04-21T16:15:20.258Z,10.70
2023-04-21T16:18:00.699Z,7.55
2023-04-21T16:20:39.724Z,11.80
2023-04-21T16:23:24.765Z,13.15
2023-04-21T16:26:02.069Z,6.60
2023-04-21T16:28:37.510Z,9.55
2023-04-21T16:31:25.577Z,9.40
2023-04-21T16:34:00.538Z,12.57
2023-04-21T16:36:33.381Z,11.00
2023-04-21T16:39:11.646Z,8.73
2023-04-21T16:41:41.604Z,7.32
2023-04-21T16:44:14.550Z,10.88
2023-04-21T16:46:54.733Z,13.05
2023-04-21T16:49:30.235Z,9.95
2023-04-21T16:52:11.429Z,11.48
2023-04-21T16:54:52.704Z,9.80
2023-04-21T16:57:30.475Z,9.57
2023-04-21T17:00:07.227Z,9.30
2023-04-21T17:02:48.746Z,12.90
2023-04-21T17:05:26.348Z,14.80
2023-04-21T17:08:04.544Z,11.38
2023-04-21T17:10:38.495Z,9.25
2023-04-21T17:13:16.189Z,11.77
2023-04-21T17:15:55.091Z,8.77
2023-04-21T17:18:32.380Z,11.25
2023-04-21T17:21:15.501Z,7.45
2023-04-21T17:23:54.511Z,12.10
2023-04-21T17:26:32.203Z,9.27
2023-04-21T17:29:11.187Z,10.25
2023-04-21T17:31:52.563Z,9.85
2023-04-21T17:34:38.537Z,8.02
2023-04-21T17:37:26.173Z,10.57
2023-04-21T17:40:12.951Z,8.48
2023-04-21T17:42:46.807Z,9.82
2023-04-21T17:45:25.461Z,7.60
2023-04-21T17:48:03.213Z,10.70
2023-04-21T17:50:36.066Z,12.65
2023-04-21T17:53:19.908Z,14.98
2023-04-21T17:56:00.677Z,13.00
2023-04-21T17:58:41.070Z,15.57
2023-04-21T18:01:25.772Z,11.23
2023-04-21T18:04:05.625Z,14.45
2023-04-21T18:06:41.332Z,13.38
2023-04-21T18:09:16.652Z,13.45
2023-04-21T18:11:52.461Z,15.35
2023-04-21T18:14:33.389Z,17.33
2023-04-21T18:17:11.542Z,17.83
2023-04-21T18:19:55.402Z,18.23
2023-04-21T18:22:30.818Z,26.25
2023-04-21T18:25:08.484Z,26.65
2023-04-21T18:27:44.922Z,24.60
2023-04-21T18:30:18.045Z,16.27
2023-04-21T18:33:03.702Z,19.42
2023-04-21T18:35:41.799Z,12.98
2023-04-21T18:38:16.655Z,15.35
2023-04-21T18:40:55.429Z,13.23
2023-04-21T18:43:34.768Z,10.23
2023-04-21T18:46:04.800Z,16.88
2023-04-21T18:48:44.974Z,13.13
2023-04-21T18:51:32.965Z,15.85
2023-04-21T18:54:12.343Z,13.77
2023-04-21T18:56:53.360Z,13.52
2023-04-21T18:59:31.464Z,18.13
2023-04-21T19:02:09.279Z,27.02
2023-04-21T19:04:50.695Z,20.45
2023-04-21T19:07:27.120Z,16.90
2023-04-21T19:12:44.644Z,19.98
2023-04-21T19:15:18.496Z,19.90
2023-04-21T19:18:00.142Z,14.43
2023-04-21T19:20:39.538Z,15.77
2023-04-21T19:23:14.399Z,19.30
2023-04-21T19:25:57.507Z,25.73
2023-04-21T19:28:32.037Z,18.80
2023-04-21T19:31:08.753Z,20.50
2023-04-21T19:33:48.196Z,18.98
2023-04-21T19:36:29.401Z,21.38
2023-04-21T19:39:10.342Z,19.00
2023-04-21T19:41:43.837Z,13.00
2023-04-21T19:44:23.376Z,12.68
2023-04-21T19:46:59.517Z,20.25
2023-04-21T19:49:43.172Z,17.40
2023-04-21T19:52:32.392Z,13.00
2023-04-21T19:55:05.471Z,15.75
2023-04-21T19:57:48.857Z,14.43
2023-04-21T20:00:34.465Z,18.02
2023-04-21T20:03:12.300Z,16.42
2023-04-21T20:05:49.750Z,14.45
2023-04-21T20:08:23.142Z,15.05
2023-04-21T20:11:08.914Z,26.38
2023-04-21T20:13:53.477Z,17.55
2023-04-21T20:16:28.536Z,15.82
2023-04-21T20:19:05.481Z,13.70
2023-04-21T20:21:44.153Z,14.63
2023-04-21T20:24:24.904Z,16.63
2023-04-21T20:27:02.401Z,17.92
2023-04-21T20:29:43.682Z,16.52
2023-04-21T20:32:22.550Z,16.90
2023-04-21T20:35:03.121Z,18.55
2023-04-21T20:37:38.381Z,19.58
2023-04-21T20:40:15.969Z,17.52
2023-04-21T20:43:06.489Z,20.13
2023-04-21T20:45:49.654Z,19.98
2023-04-21T20:48:28.879Z,19.40
2023-04-21T20:51:05.531Z,18.27
2023-04-21T20:53:43.395Z,26.05
2023-04-21T20:56:25.144Z,18.55
2023-04-21T20:58:55.125Z,20.08
2023-04-21T21:01:38.904Z,20.60
2023-04-21T21:04:16.609Z,25.92
2023-04-21T21:06:58.453Z,19.80
2023-04-21T21:09:41.648Z,27.08
2023-04-21T21:12:17.496Z,31.38
2023-04-21T21:14:52.987Z,24.65
2023-04-21T21:17:25.889Z,21.15
2023-04-21T21:19:58.886Z,22.00
2023-04-21T21:22:34.607Z,20.43
2023-04-21T21:25:15.061Z,25.10
2023-04-21T21:27:53.110Z,23.65
2023-04-21T21:30:28.464Z,22.08
2023-04-21T21:33:10.922Z,34.08
2023-04-21T21:35:43.073Z,18.45
2023-04-21T21:38:17.596Z,24.40
2023-04-21T21:40:55.359Z,25.92
2023-04-21T21:43:33.949Z,25.35
2023-04-21T21:46:07.593Z,24.20
2023-04-21T21:48:43.501Z,22.90
2023-04-21T21:51:21.144Z,24.02
2023-04-21T21:54:01.880Z,24.08
2023-04-21T21:56:40.113Z,24.92
2023-04-21T21:59:24.535Z,23.60
2023-04-21T22:02:02.316Z,22.67
2023-04-21T22:04:38.463Z,19.65
2023-04-21T22:07:16.492Z,23.00
2023-04-21T22:09:55.481Z,35.08
2023-04-21T22:12:33.581Z,32.45
2023-04-21T22:15:08.662Z,26.15
2023-04-21T22:17:49.427Z,32.75
2023-04-21T22:20:31.024Z,30.20
2023-04-21T22:23:07.828Z,32.70
2023-04-21T22:25:52.126Z,25.83
2023-04-21T22:28:30.375Z,29.52
2023-04-21T22:31:11.116Z,21.77
2023-04-21T22:33:52.436Z,22.38
2023-04-21T22:36:39.424Z,18.02
2023-04-21T22:39:12.709Z,20.58
2023-04-21T22:41:53.282Z,19.05
2023-04-21T22:44:31.432Z,21.45
2023-04-21T22:47:09.672Z,21.02
2023-04-21T22:49:48.085Z,18.33
2023-04-21T22:52:21.496Z,19.17
2023-04-21T22:54:59.249Z,19.67
2023-04-21T22:57:36.515Z,21.15
2023-04-21T23:00:17.042Z,18.15
2023-04-21T23:02:58.467Z,23.02
2023-04-21T23:05:38.667Z,21.35
2023-04-21T23:08:19.948Z,27.88
2023-04-21T23:11:06.529Z,24.85
2023-04-21T23:13:38.403Z,30.15
2023-04-21T23:16:11.575Z,25.08
2023-04-21T23:18:47.080Z,26.10
2023-04-21T23:21:20.776Z,27.83
2023-04-21T23:26:28.630Z,27.30
2023-04-21T23:29:06.808Z,28.35
2023-04-21T23:31:44.727Z,28.73
2023-04-21T23:34:17.061Z,28.95
2023-04-21T23:36:56.547Z,28.20
2023-04-21T23:39:50.530Z,32.60
2023-04-21T23:42:28.245Z,30.15
2023-04-21T23:45:05.142Z,30.60
2023-04-21T23:47:49.199Z,32.92
2023-04-21T23:50:24.698Z,33.03
2023-04-21T23:53:08.523Z,33.15
2023-04-21T23:55:46.275Z,27.02
2023-04-21T23:58:21.646Z,22.92
